Time;durP1;ratioP1;P1;durP2;ratioP2;P2;SDS_P1;SDS_P2;PMS_P1;PMS_P2;Temp;Humidity;BMP_temperature;BMP_pressure;BME280_temperature;BME280_humidity;BME280_pressure;Samples;Min_cycle;Max_cycle;Signal;HPM_P1;HPM_P2
2023/12/09 00:00:46;;;;;;;119.55;30.83;;;7.20;99.90;;;;;;5028310;28;20060;-73
2023/12/09 00:03:11;;;;;;;112.72;29.58;;;7.20;99.90;;;;;;5026231;28;20485;-73
2023/12/09 00:05:37;;;;;;;116.75;29.60;;;7.10;99.90;;;;;;5015519;28;20029;-74
2023/12/09 00:08:03;;;;;;;123.45;30.05;;;7.20;99.90;;;;;;5030664;28;20037;-73
2023/12/09 00:10:28;;;;;;;102.38;28.02;;;7.20;99.90;;;;;;5047109;28;20036;-74
2023/12/09 00:12:54;;;;;;;124.65;30.52;;;7.20;99.90;;;;;;5023173;28;20040;-74
2023/12/09 00:15:20;;;;;;;115.85;29.08;;;7.20;99.90;;;;;;5042680;28;20032;-73
2023/12/09 00:17:46;;;;;;;101.10;27.65;;;7.20;99.90;;;;;;5044858;28;20762;-74
2023/12/09 00:20:12;;;;;;;116.25;28.50;;;7.20;99.90;;;;;;5031548;28;20218;-73
2023/12/09 00:22:38;;;;;;;96.68;27.05;;;7.20;99.90;;;;;;5026552;28;20060;-71
2023/12/09 00:25:06;;;;;;;99.60;26.95;;;7.20;99.90;;;;;;5031400;28;20112;-76
2023/12/09 00:27:32;;;;;;;95.60;26.38;;;7.30;99.90;;;;;;5042885;28;20041;-74
2023/12/09 00:29:57;;;;;;;104.07;28.90;;;7.30;99.90;;;;;;5018509;28;20076;-72
2023/12/09 00:32:23;;;;;;;115.50;27.90;;;7.30;99.90;;;;;;5029860;28;20048;-72
2023/12/09 00:34:48;;;;;;;93.03;26.15;;;7.30;99.90;;;;;;5051243;28;20056;-76
2023/12/09 00:37:14;;;;;;;120.80;28.75;;;7.30;99.90;;;;;;5040627;28;20087;-75
2023/12/09 00:39:40;;;;;;;88.90;25.35;;;7.40;99.90;;;;;;5035415;28;20060;-75
2023/12/09 00:42:06;;;;;;;98.50;28.67;;;7.40;99.90;;;;;;5047846;28;20587;-73
2023/12/09 00:44:31;;;;;;;96.95;26.90;;;7.30;99.90;;;;;;5040048;28;20042;-72
2023/12/09 00:46:57;;;;;;;96.55;27.88;;;7.30;99.90;;;;;;5037853;28;20052;-72
2023/12/09 00:49:23;;;;;;;89.60;26.58;;;7.30;99.90;;;;;;5028624;28;20041;-73
2023/12/09 00:51:49;;;;;;;100.20;28.85;;;7.30;99.90;;;;;;5030345;28;20595;-77
2023/12/09 00:54:14;;;;;;;96.72;27.52;;;7.30;99.90;;;;;;5022176;28;20123;-75
2023/12/09 00:56:40;;;;;;;83.30;24.67;;;7.30;99.90;;;;;;5032339;28;20419;-75
2023/12/09 00:59:07;;;;;;;97.85;26.50;;;7.30;99.90;;;;;;5024880;28;20492;-74
2023/12/09 01:01:36;;;;;;;87.82;25.27;;;7.30;99.90;;;;;;5021086;28;20129;-75
2023/12/09 01:04:02;;;;;;;96.93;27.95;;;7.30;99.90;;;;;;5032274;28;20030;-72
2023/12/09 01:06:28;;;;;;;94.97;26.38;;;7.30;99.90;;;;;;5039413;28;20044;-73
2023/12/09 01:08:54;;;;;;;93.38;26.42;;;7.30;99.90;;;;;;5033040;28;20484;-77
2023/12/09 01:11:20;;;;;;;103.30;27.27;;;7.30;99.90;;;;;;5030174;28;20045;-77
2023/12/09 01:13:46;;;;;;;99.70;25.75;;;7.30;99.90;;;;;;5040250;28;20178;-75
2023/12/09 01:16:11;;;;;;;88.60;26.88;;;7.30;99.90;;;;;;5040787;28;20136;-71
2023/12/09 01:18:37;;;;;;;104.45;26.98;;;7.30;99.90;;;;;;5049291;28;20049;-74
2023/12/09 01:21:03;;;;;;;87.53;25.77;;;7.30;99.90;;;;;;5042279;28;20043;-76
2023/12/09 01:23:29;;;;;;;86.55;27.48;;;7.30;99.90;;;;;;5030683;28;20046;-75
2023/12/09 01:25:54;;;;;;;85.07;25.60;;;7.20;99.90;;;;;;5036155;28;20111;-74
2023/12/09 01:28:20;;;;;;;93.90;26.70;;;7.30;99.90;;;;;;5033736;28;20037;-75
2023/12/09 01:30:45;;;;;;;96.50;27.38;;;7.20;99.90;;;;;;5036321;28;20049;-77
2023/12/09 01:33:12;;;;;;;85.57;24.98;;;7.30;99.90;;;;;;5035375;28;20069;-74
2023/12/09 01:35:38;;;;;;;91.55;25.52;;;7.20;99.90;;;;;;5045205;28;20081;-77
2023/12/09 01:38:03;;;;;;;97.85;28.05;;;7.30;99.90;;;;;;5030472;28;20120;-74
2023/12/09 01:40:29;;;;;;;102.47;26.13;;;7.30;99.90;;;;;;5036911;28;20033;-72
2023/12/09 01:42:54;;;;;;;88.38;25.60;;;7.20;99.90;;;;;;5029801;28;20342;-75
2023/12/09 01:45:20;;;;;;;82.85;25.05;;;7.20;99.90;;;;;;5042810;28;20049;-76
2023/12/09 01:47:47;;;;;;;95.55;24.83;;;7.30;99.90;;;;;;5056381;28;20037;-74
2023/12/09 01:50:15;;;;;;;82.75;24.58;;;7.30;99.90;;;;;;5038117;28;20095;-75
2023/12/09 01:52:41;;;;;;;75.75;24.55;;;7.30;99.90;;;;;;5013416;28;20041;-76
2023/12/09 01:55:10;;;;;;;92.93;26.52;;;7.30;99.90;;;;;;5034282;28;20449;-75
2023/12/09 01:57:36;;;;;;;84.22;23.58;;;7.30;99.90;;;;;;5033363;28;20046;-76
2023/12/09 02:00:06;;;;;;;87.53;26.67;;;7.30;99.90;;;;;;5023401;28;20111;-75
2023/12/09 02:02:31;;;;;;;99.20;25.63;;;7.30;99.90;;;;;;5029955;28;20561;-76
2023/12/09 02:04:59;;;;;;;86.18;25.35;;;7.30;99.90;;;;;;5030355;28;20061;-77
2023/12/09 02:07:24;;;;;;;80.78;24.00;;;7.30;99.90;;;;;;5028665;28;20643;-75
2023/12/09 02:09:50;;;;;;;77.07;23.33;;;7.30;99.90;;;;;;5017361;28;20152;-76
2023/12/09 02:12:36;;;;;;;70.70;24.80;;;7.30;99.90;;;;;;5035485;28;20043;-74
2023/12/09 02:15:18;;;;;;;73.88;24.17;;;7.30;99.90;;;;;;5043784;28;20087;-76
2023/12/09 02:18:03;;;;;;;89.43;25.85;;;7.30;99.90;;;;;;5032580;28;20049;-76
2023/12/09 02:20:29;;;;;;;68.07;21.80;;;7.30;99.90;;;;;;5031467;28;20043;-78
2023/12/09 02:23:05;;;;;;;70.57;23.17;;;7.30;99.90;;;;;;5031365;28;20383;-77
2023/12/09 02:25:32;;;;;;;82.07;23.67;;;7.30;99.90;;;;;;5038050;28;20041;-76
2023/12/09 02:28:02;;;;;;;79.57;23.95;;;7.30;99.90;;;;;;5028370;28;20041;-78
2023/12/09 02:30:49;;;;;;;75.28;23.85;;;7.30;99.90;;;;;;5041113;28;20404;-75
2023/12/09 02:33:17;;;;;;;89.15;23.73;;;7.30;99.90;;;;;;5060846;28;20091;-77
2023/12/09 02:35:45;;;;;;;87.65;24.30;;;7.30;99.90;;;;;;5043197;28;20048;-77
2023/12/09 02:38:11;;;;;;;62.40;22.08;;;7.20;99.90;;;;;;5036108;28;20158;-73
2023/12/09 02:40:38;;;;;;;76.68;23.35;;;7.30;99.90;;;;;;5030194;28;20044;-76
2023/12/09 02:43:05;;;;;;;70.50;22.33;;;7.30;99.90;;;;;;5030411;28;20496;-76
2023/12/09 02:45:31;;;;;;;79.05;22.42;;;7.30;99.90;;;;;;5031248;28;20126;-78
2023/12/09 02:47:56;;;;;;;83.80;24.33;;;7.30;99.90;;;;;;5045027;28;20028;-72
2023/12/09 02:50:22;;;;;;;64.78;22.55;;;7.30;99.90;;;;;;5036896;28;20041;-78
2023/12/09 02:52:48;;;;;;;74.40;23.65;;;7.30;99.90;;;;;;5035353;28;20098;-78
2023/12/09 02:55:14;;;;;;;71.20;22.05;;;7.30;99.90;;;;;;5041710;28;20166;-77
2023/12/09 02:57:39;;;;;;;71.65;22.08;;;7.40;99.90;;;;;;5045503;28;20036;-76
2023/12/09 03:00:06;;;;;;;76.65;22.67;;;7.30;99.90;;;;;;5042570;28;20037;-76
2023/12/09 03:02:32;;;;;;;71.30;22.08;;;7.30;99.90;;;;;;5035160;28;20045;-76
2023/12/09 03:05:00;;;;;;;70.35;21.83;;;7.30;99.90;;;;;;5037095;28;20051;-76
2023/12/09 03:07:26;;;;;;;72.32;22.75;;;7.40;99.90;;;;;;5031613;28;20541;-76
2023/12/09 03:09:51;;;;;;;69.60;22.88;;;7.30;99.90;;;;;;5015343;28;20120;-74
2023/12/09 03:12:17;;;;;;;74.80;20.67;;;7.40;99.90;;;;;;5036347;28;20416;-76
2023/12/09 03:14:43;;;;;;;69.18;22.42;;;7.40;99.90;;;;;;5057153;28;20072;-79
2023/12/09 03:17:12;;;;;;;64.45;20.73;;;7.40;99.90;;;;;;5046141;28;20033;-77
2023/12/09 03:19:37;;;;;;;66.43;21.25;;;7.40;99.90;;;;;;5049699;28;20104;-76
2023/12/09 03:22:03;;;;;;;63.60;21.02;;;7.40;99.90;;;;;;5041886;28;20116;-77
2023/12/09 03:24:29;;;;;;;67.70;22.70;;;7.40;99.90;;;;;;5035899;28;20099;-77
2023/12/09 03:26:54;;;;;;;73.85;21.58;;;7.40;99.90;;;;;;5029805;28;20065;-73
2023/12/09 03:29:21;;;;;;;54.88;19.45;;;7.40;99.90;;;;;;5035175;28;20083;-76
2023/12/09 03:31:47;;;;;;;51.50;19.33;;;7.30;99.90;;;;;;5050912;28;20092;-76
2023/12/09 03:34:13;;;;;;;79.30;20.65;;;7.30;99.90;;;;;;5030192;28;20133;-76
2023/12/09 03:36:39;;;;;;;65.53;20.75;;;7.30;99.90;;;;;;5038450;28;20526;-73
2023/12/09 03:39:06;;;;;;;55.80;19.50;;;7.30;99.90;;;;;;5027948;28;20073;-75
2023/12/09 03:41:32;;;;;;;58.28;19.83;;;7.30;99.90;;;;;;5022362;28;20049;-77
2023/12/09 03:43:58;;;;;;;62.70;18.20;;;7.30;99.90;;;;;;5042374;28;20143;-76
2023/12/09 03:46:24;;;;;;;59.75;18.55;;;7.30;99.90;;;;;;5046896;28;20140;-78
2023/12/09 03:48:49;;;;;;;54.45;18.30;;;7.30;99.90;;;;;;5037744;28;20078;-75
2023/12/09 03:51:15;;;;;;;61.65;17.23;;;7.30;99.90;;;;;;5036988;28;20044;-74
2023/12/09 03:53:41;;;;;;;53.70;18.13;;;7.20;99.90;;;;;;5012471;28;20067;-71
2023/12/09 03:56:08;;;;;;;58.88;17.70;;;7.20;99.90;;;;;;5019009;28;20118;-76
2023/12/09 03:58:34;;;;;;;61.80;18.40;;;7.20;99.90;;;;;;5013796;28;20087;-74
2023/12/09 04:01:00;;;;;;;50.58;17.00;;;7.20;99.90;;;;;;5033913;28;20052;-75
2023/12/09 04:03:27;;;;;;;53.75;17.67;;;7.20;99.90;;;;;;5035420;28;20053;-77
2023/12/09 04:05:53;;;;;;;56.75;17.20;;;7.20;99.90;;;;;;5034375;28;20049;-73
2023/12/09 04:08:19;;;;;;;49.20;16.27;;;7.20;99.90;;;;;;5033891;28;20388;-76
2023/12/09 04:10:44;;;;;;;53.42;16.45;;;7.20;99.90;;;;;;5027867;28;20090;-75
2023/12/09 04:13:10;;;;;;;56.30;17.88;;;7.20;99.90;;;;;;5030869;28;20045;-76
2023/12/09 04:15:38;;;;;;;46.83;16.10;;;7.20;99.90;;;;;;5022824;28;20037;-71
2023/12/09 04:18:07;;;;;;;51.95;16.23;;;7.20;99.90;;;;;;5043472;28;20052;-73
2023/12/09 04:20:33;;;;;;;60.63;17.40;;;7.20;99.90;;;;;;5024919;28;20053;-75
2023/12/09 04:22:58;;;;;;;59.35;17.95;;;7.20;99.90;;;;;;5033548;28;20069;-76
2023/12/09 04:25:24;;;;;;;44.60;15.98;;;7.20;99.90;;;;;;5039878;28;20092;-74
2023/12/09 04:27:54;;;;;;;51.50;15.75;;;7.20;99.90;;;;;;5033999;28;20477;-75
2023/12/09 04:30:22;;;;;;;45.35;14.98;;;7.20;99.90;;;;;;5038361;28;20080;-73
2023/12/09 04:32:47;;;;;;;51.20;16.17;;;7.20;99.90;;;;;;5025887;28;20103;-74
2023/12/09 04:35:13;;;;;;;50.85;15.68;;;7.20;99.90;;;;;;5044160;28;20045;-72
2023/12/09 04:37:39;;;;;;;47.85;15.43;;;7.20;99.90;;;;;;5045866;28;20049;-72
2023/12/09 04:40:09;;;;;;;50.20;16.02;;;7.20;99.90;;;;;;5046856;28;20060;-74
2023/12/09 04:42:35;;;;;;;38.20;14.43;;;7.20;99.90;;;;;;5037706;28;20068;-75
2023/12/09 04:45:00;;;;;;;55.33;15.32;;;7.20;99.90;;;;;;5034927;28;20384;-73
2023/12/09 04:47:26;;;;;;;50.08;14.43;;;7.20;99.90;;;;;;5036348;28;20088;-75
2023/12/09 04:49:52;;;;;;;47.92;14.00;;;7.20;99.90;;;;;;5033991;28;20447;-75
2023/12/09 04:52:17;;;;;;;39.97;14.68;;;7.20;99.90;;;;;;5045580;28;20127;-76
2023/12/09 04:54:43;;;;;;;52.85;14.43;;;7.20;99.90;;;;;;5037705;28;20038;-74
2023/12/09 04:57:09;;;;;;;48.90;14.48;;;7.20;99.90;;;;;;5029381;28;20469;-72
2023/12/09 04:59:34;;;;;;;45.75;15.02;;;7.20;99.90;;;;;;5043317;28;20060;-74
2023/12/09 05:02:00;;;;;;;43.95;13.50;;;7.20;99.90;;;;;;5022323;28;20057;-74
2023/12/09 05:04:25;;;;;;;39.58;13.05;;;7.20;99.90;;;;;;5037480;28;20048;-74
2023/12/09 05:06:51;;;;;;;41.88;14.52;;;7.20;99.90;;;;;;5041401;28;20060;-74
2023/12/09 05:09:17;;;;;;;44.75;15.48;;;7.20;99.90;;;;;;5015165;28;20069;-75
2023/12/09 05:11:42;;;;;;;51.55;13.10;;;7.20;99.90;;;;;;5025468;28;20560;-74
2023/12/09 05:14:08;;;;;;;38.30;12.75;;;7.20;99.90;;;;;;5014979;28;20148;-67
2023/12/09 05:16:33;;;;;;;36.35;12.95;;;7.10;99.90;;;;;;5015262;28;20053;-74
2023/12/09 05:18:59;;;;;;;41.70;13.10;;;7.20;99.90;;;;;;5029564;28;20079;-74
2023/12/09 05:21:25;;;;;;;50.08;14.02;;;7.10;99.90;;;;;;5025838;28;20077;-77
2023/12/09 05:23:50;;;;;;;48.30;12.98;;;7.10;99.90;;;;;;5036342;28;20047;-74
2023/12/09 05:26:22;;;;;;;42.40;13.55;;;7.10;99.90;;;;;;5030294;28;20045;-74
2023/12/09 05:28:48;;;;;;;41.08;13.02;;;7.10;99.90;;;;;;5030380;28;20037;-75
2023/12/09 05:31:13;;;;;;;45.28;14.02;;;7.10;99.90;;;;;;5031854;28;20052;-73
2023/12/09 05:33:40;;;;;;;37.60;12.43;;;7.10;99.90;;;;;;5022991;28;20037;-71
2023/12/09 05:36:06;;;;;;;52.17;13.30;;;7.10;99.90;;;;;;5036779;28;20064;-74
2023/12/09 05:38:32;;;;;;;44.40;13.85;;;7.10;99.90;;;;;;5040061;28;20041;-74
2023/12/09 05:40:57;;;;;;;47.17;13.45;;;7.10;99.90;;;;;;5041593;28;20041;-73
2023/12/09 05:43:23;;;;;;;41.70;13.15;;;7.10;99.90;;;;;;5035133;28;20641;-73
2023/12/09 05:45:48;;;;;;;41.80;13.60;;;7.10;99.90;;;;;;5035027;28;20038;-74
2023/12/09 05:48:14;;;;;;;41.15;13.88;;;7.10;99.90;;;;;;5038173;28;20051;-74
2023/12/09 05:50:40;;;;;;;45.30;14.32;;;7.10;99.90;;;;;;5033188;28;20033;-74
2023/12/09 05:53:06;;;;;;;40.33;13.10;;;7.10;99.90;;;;;;5030969;28;20104;-76
2023/12/09 05:55:32;;;;;;;47.20;14.18;;;7.10;99.90;;;;;;5029668;28;20045;-77
2023/12/09 05:57:58;;;;;;;46.58;13.93;;;7.10;99.90;;;;;;5035351;28;20099;-75
2023/12/09 06:00:23;;;;;;;38.17;13.57;;;7.10;99.90;;;;;;5033849;28;20033;-74
2023/12/09 06:02:49;;;;;;;52.83;14.50;;;7.10;99.90;;;;;;5029446;28;20065;-75
2023/12/09 06:05:14;;;;;;;44.85;14.30;;;7.00;99.90;;;;;;5028362;28;20433;-73
2023/12/09 06:07:40;;;;;;;39.60;13.93;;;7.00;99.90;;;;;;5037587;28;20033;-74
2023/12/09 06:10:06;;;;;;;49.10;15.40;;;7.00;99.90;;;;;;5037391;28;20040;-73
2023/12/09 06:12:32;;;;;;;44.75;13.93;;;7.00;99.90;;;;;;5033804;28;20177;-74
2023/12/09 06:14:57;;;;;;;47.83;14.80;;;7.00;99.90;;;;;;5032257;28;20571;-74
2023/12/09 06:17:23;;;;;;;41.22;14.80;;;7.00;99.90;;;;;;5016025;28;20098;-72
2023/12/09 06:19:49;;;;;;;40.00;14.50;;;7.00;99.90;;;;;;5033084;28;20041;-73
2023/12/09 06:22:14;;;;;;;44.88;13.20;;;7.00;99.90;;;;;;5030498;28;20037;-73
2023/12/09 06:24:40;;;;;;;40.65;13.00;;;7.00;99.90;;;;;;5032453;28;20055;-72
2023/12/09 06:27:05;;;;;;;27.40;11.90;;;7.00;99.90;;;;;;5033982;28;20021;-75
2023/12/09 06:29:31;;;;;;;40.63;13.35;;;6.90;99.90;;;;;;5035871;28;20049;-73
2023/12/09 06:31:57;;;;;;;46.22;14.45;;;7.00;99.90;;;;;;5016976;28;20397;-73
2023/12/09 06:34:22;;;;;;;38.25;13.18;;;7.00;99.90;;;;;;5034345;28;20045;-75
2023/12/09 06:36:48;;;;;;;41.67;12.75;;;7.00;99.90;;;;;;5033910;28;20032;-75
2023/12/09 06:39:14;;;;;;;41.30;12.98;;;7.00;99.90;;;;;;5032121;28;20119;-73
2023/12/09 06:41:40;;;;;;;45.33;13.05;;;7.00;99.90;;;;;;5028607;28;20052;-72
2023/12/09 06:44:05;;;;;;;31.10;12.52;;;7.00;99.90;;;;;;5040842;28;20116;-75
2023/12/09 06:46:31;;;;;;;38.85;12.85;;;6.90;99.90;;;;;;5041654;28;20398;-72
2023/12/09 06:48:57;;;;;;;40.15;12.32;;;6.90;99.90;;;;;;5046863;28;20048;-75
2023/12/09 06:51:22;;;;;;;39.88;12.93;;;6.90;99.90;;;;;;5017425;28;20041;-73
2023/12/09 06:53:48;;;;;;;34.00;12.35;;;6.90;99.90;;;;;;5022853;28;20053;-69
2023/12/09 06:56:20;;;;;;;36.65;12.40;;;6.90;99.90;;;;;;5013114;28;20138;-72
2023/12/09 06:58:46;;;;;;;38.75;12.52;;;6.90;99.90;;;;;;5022300;28;20040;-74
2023/12/09 07:01:23;;;;;;;41.53;13.13;;;6.90;99.90;;;;;;5042928;28;20444;-72
2023/12/09 07:03:49;;;;;;;34.78;11.85;;;6.90;99.90;;;;;;5043557;28;20067;-75
2023/12/09 07:06:25;;;;;;;39.65;12.48;;;6.90;99.90;;;;;;5042178;28;20045;-72
2023/12/09 07:08:52;;;;;;;30.65;10.45;;;6.90;99.90;;;;;;5041103;28;20090;-72
2023/12/09 07:11:18;;;;;;;33.08;10.32;;;6.80;99.90;;;;;;5038516;28;20397;-75
2023/12/09 07:13:44;;;;;;;30.90;11.10;;;6.80;99.90;;;;;;5034397;28;20132;-73
2023/12/09 07:16:10;;;;;;;33.28;10.73;;;6.80;99.90;;;;;;5042941;28;20099;-73
2023/12/09 07:18:58;;;;;;;37.17;11.23;;;6.80;99.90;;;;;;5035662;28;20041;-72
2023/12/09 07:21:26;;;;;;;44.20;11.63;;;6.80;99.90;;;;;;5026678;28;20048;-74
2023/12/09 07:23:51;;;;;;;39.85;11.10;;;6.80;99.90;;;;;;5040245;28;20053;-73
2023/12/09 07:26:18;;;;;;;38.88;11.90;;;6.80;99.90;;;;;;5035989;28;20037;-73
2023/12/09 07:28:44;;;;;;;39.92;11.75;;;6.80;99.90;;;;;;5015579;28;20112;-72
2023/12/09 07:31:11;;;;;;;30.23;11.05;;;6.70;99.90;;;;;;5033295;28;20095;-75
2023/12/09 07:33:36;;;;;;;30.30;10.15;;;6.70;99.90;;;;;;5034267;28;20409;-74
2023/12/09 07:36:02;;;;;;;30.58;11.07;;;6.80;99.90;;;;;;5019995;28;20103;-74
2023/12/09 07:38:28;;;;;;;33.35;11.40;;;6.80;99.90;;;;;;5026267;28;20040;-71
2023/12/09 07:40:53;;;;;;;39.45;9.68;;;6.80;99.90;;;;;;5045016;28;20048;-75
2023/12/09 07:43:19;;;;;;;21.20;9.18;;;6.80;99.90;;;;;;5028479;28;20037;-71
2023/12/09 07:45:45;;;;;;;28.17;9.18;;;6.80;99.90;;;;;;5043002;28;20029;-74
2023/12/09 07:48:10;;;;;;;23.63;8.82;;;6.80;99.90;;;;;;5040765;28;20041;-73
2023/12/09 07:50:36;;;;;;;27.70;9.45;;;6.80;99.90;;;;;;5036423;28;20033;-74
2023/12/09 07:53:02;;;;;;;35.15;8.68;;;6.80;99.90;;;;;;5031737;28;20033;-74
2023/12/09 07:55:28;;;;;;;23.85;7.78;;;6.70;99.90;;;;;;5020902;28;20033;-76
2023/12/09 07:57:54;;;;;;;28.35;8.60;;;6.70;99.90;;;;;;5032433;28;20095;-74
2023/12/09 08:00:19;;;;;;;34.58;9.75;;;6.70;99.90;;;;;;5029611;28;20034;-71
2023/12/09 08:02:45;;;;;;;26.33;9.15;;;6.70;99.90;;;;;;5021226;28;20080;-74
2023/12/09 08:05:11;;;;;;;26.40;8.70;;;6.70;99.90;;;;;;5026759;28;20155;-74
2023/12/09 08:07:37;;;;;;;34.75;9.80;;;6.70;99.90;;;;;;5034126;28;20045;-75
2023/12/09 08:10:02;;;;;;;27.15;8.20;;;6.70;99.90;;;;;;5030178;28;20090;-75
2023/12/09 08:12:28;;;;;;;26.80;8.20;;;6.70;99.90;;;;;;5039738;28;20041;-72
2023/12/09 08:14:54;;;;;;;22.15;7.32;;;6.70;99.90;;;;;;5036116;28;20553;-75
2023/12/09 08:17:19;;;;;;;24.40;7.68;;;6.70;99.90;;;;;;5027919;28;20045;-73
2023/12/09 08:19:45;;;;;;;23.05;7.78;;;6.70;99.90;;;;;;5039081;28;20072;-72
2023/12/09 08:22:12;;;;;;;17.77;6.80;;;6.70;99.90;;;;;;5013546;28;20519;-72
2023/12/09 08:24:37;;;;;;;19.15;6.00;;;6.70;99.90;;;;;;5037632;28;20057;-70
2023/12/09 08:27:03;;;;;;;23.77;7.07;;;6.60;99.90;;;;;;5011193;28;20083;-76
2023/12/09 08:29:29;;;;;;;20.70;6.72;;;6.70;99.90;;;;;;5022992;28;20179;-77
2023/12/09 08:31:56;;;;;;;24.65;6.22;;;6.60;99.90;;;;;;5038659;28;20244;-72
2023/12/09 08:34:22;;;;;;;18.67;6.25;;;6.60;99.90;;;;;;5034577;28;20182;-74
2023/12/09 08:36:47;;;;;;;24.80;6.50;;;6.60;99.90;;;;;;5046589;28;20069;-72
2023/12/09 08:39:14;;;;;;;22.85;6.25;;;6.50;99.90;;;;;;5041866;28;20446;-75
2023/12/09 08:41:39;;;;;;;24.70;6.32;;;6.50;99.90;;;;;;5010834;28;20129;-75
2023/12/09 08:44:06;;;;;;;17.60;5.35;;;6.50;99.90;;;;;;5026072;28;20111;-74
2023/12/09 08:46:32;;;;;;;19.67;4.93;;;6.50;99.90;;;;;;5047320;28;20366;-77
2023/12/09 08:48:57;;;;;;;25.42;5.32;;;6.50;99.90;;;;;;5039148;28;20075;-73
2023/12/09 08:51:23;;;;;;;17.40;5.30;;;6.50;99.90;;;;;;5044678;28;20048;-73
2023/12/09 08:53:50;;;;;;;17.63;4.88;;;6.40;99.90;;;;;;5031499;28;20171;-73
2023/12/09 08:56:15;;;;;;;18.55;4.88;;;6.40;99.90;;;;;;5046541;28;20041;-74
2023/12/09 08:58:41;;;;;;;14.05;5.03;;;6.50;99.90;;;;;;5049639;28;20037;-73
2023/12/09 09:01:08;;;;;;;18.35;5.30;;;6.50;99.90;;;;;;5039892;28;20041;-74
2023/12/09 09:03:33;;;;;;;17.20;4.47;;;6.40;99.90;;;;;;5050129;28;20166;-79
2023/12/09 09:05:59;;;;;;;17.10;4.70;;;6.50;99.90;;;;;;5034254;28;20509;-74
2023/12/09 09:08:25;;;;;;;22.65;4.57;;;6.50;99.90;;;;;;5049420;28;20040;-78
2023/12/09 09:10:51;;;;;;;15.18;4.10;;;6.50;99.90;;;;;;5018172;28;20034;-73
2023/12/09 09:13:16;;;;;;;16.60;4.55;;;6.60;99.90;;;;;;5030675;28;20127;-76
2023/12/09 09:15:45;;;;;;;16.85;5.38;;;6.60;99.90;;;;;;5015656;28;20136;-73
2023/12/09 09:18:10;;;;;;;23.55;5.20;;;6.60;99.90;;;;;;5036544;28;20533;-72
2023/12/09 09:20:36;;;;;;;17.25;4.60;;;6.60;99.90;;;;;;5034970;28;20045;-73
2023/12/09 09:23:02;;;;;;;17.75;4.85;;;6.60;99.90;;;;;;5050910;28;20068;-73
2023/12/09 09:25:27;;;;;;;21.08;4.70;;;6.70;99.90;;;;;;5050606;28;20044;-75
2023/12/09 09:27:53;;;;;;;16.17;3.50;;;6.70;99.90;;;;;;5048839;28;20041;-73
2023/12/09 09:30:25;;;;;;;16.25;4.10;;;6.70;99.90;;;;;;5027810;28;20132;-72
2023/12/09 09:32:51;;;;;;;19.95;4.30;;;6.80;99.90;;;;;;5037341;28;20076;-70
2023/12/09 09:35:16;;;;;;;16.55;3.50;;;6.90;99.90;;;;;;5050369;28;20449;-73
2023/12/09 09:37:42;;;;;;;11.73;3.80;;;7.00;99.90;;;;;;5051672;28;20043;-72
2023/12/09 09:40:11;;;;;;;17.95;3.90;;;7.00;99.90;;;;;;5032197;28;20050;-73
2023/12/09 09:42:49;;;;;;;17.35;3.72;;;7.10;99.90;;;;;;5015458;28;20044;-80
2023/12/09 09:45:26;;;;;;;18.20;3.33;;;7.20;99.90;;;;;;5020359;28;20068;-76
2023/12/09 09:47:54;;;;;;;12.85;3.00;;;7.30;99.90;;;;;;5052885;28;20076;-73
2023/12/09 09:50:24;;;;;;;14.85;3.53;;;7.30;99.90;;;;;;5041481;28;20126;-80
2023/12/09 09:52:51;;;;;;;17.92;3.47;;;7.30;99.90;;;;;;5051303;28;20072;-76
2023/12/09 09:55:19;;;;;;;13.13;3.30;;;7.30;99.90;;;;;;5051571;28;20157;-76
2023/12/09 09:57:46;;;;;;;14.77;3.33;;;7.20;99.90;;;;;;5050845;28;20037;-73
2023/12/09 10:00:14;;;;;;;14.57;2.80;;;7.20;99.90;;;;;;5046911;28;20097;-71
2023/12/09 10:02:47;;;;;;;14.48;3.40;;;7.20;99.90;;;;;;5029966;28;20103;-76
2023/12/09 10:05:16;;;;;;;9.40;3.13;;;7.20;99.90;;;;;;5031422;28;20120;-72
2023/12/09 10:07:42;;;;;;;14.30;3.47;;;7.20;99.90;;;;;;5015838;28;20076;-75
2023/12/09 10:10:09;;;;;;;13.15;2.90;;;7.20;99.90;;;;;;5036718;28;20067;-71
2023/12/09 10:12:35;;;;;;;13.30;3.28;;;7.20;99.90;;;;;;5028587;28;20097;-72
2023/12/09 10:15:02;;;;;;;12.75;3.10;;;7.20;99.90;;;;;;5029826;28;20038;-72
2023/12/09 10:17:28;;;;;;;11.45;3.30;;;7.20;99.90;;;;;;5031397;28;20450;-71
2023/12/09 10:19:57;;;;;;;12.77;3.53;;;7.30;99.90;;;;;;5044768;28;20103;-70
2023/12/09 10:22:25;;;;;;;15.80;3.45;;;7.30;99.90;;;;;;5032522;28;20443;-73
2023/12/09 10:24:51;;;;;;;9.93;3.40;;;7.30;99.90;;;;;;5018955;28;20673;-70
2023/12/09 10:27:19;;;;;;;15.82;3.22;;;7.30;99.90;;;;;;5049207;28;20143;-70
2023/12/09 10:29:45;;;;;;;13.43;3.80;;;7.30;99.90;;;;;;5024756;28;20128;-70
2023/12/09 10:32:12;;;;;;;16.05;3.28;;;7.30;99.90;;;;;;5034981;28;20155;-69
2023/12/09 10:34:39;;;;;;;10.50;2.80;;;7.40;99.90;;;;;;5035375;28;20060;-72
2023/12/09 10:37:12;;;;;;;10.52;3.15;;;7.40;99.90;;;;;;5047645;28;20496;-71
2023/12/09 10:39:42;;;;;;;12.43;3.50;;;7.50;99.90;;;;;;5048839;28;20123;-72
2023/12/09 10:42:09;;;;;;;9.15;3.13;;;7.50;99.90;;;;;;5043667;28;20388;-71
2023/12/09 10:44:34;;;;;;;13.23;3.47;;;7.50;99.90;;;;;;5032028;28;20442;-72
2023/12/09 10:47:00;;;;;;;11.05;2.97;;;7.60;99.90;;;;;;5049240;28;20041;-70
2023/12/09 10:49:26;;;;;;;8.45;2.55;;;7.60;99.90;;;;;;5028799;28;20405;-70
2023/12/09 10:51:51;;;;;;;11.48;3.70;;;7.60;99.90;;;;;;5037171;28;20351;-72
2023/12/09 10:54:17;;;;;;;10.32;3.80;;;7.60;99.90;;;;;;5034111;28;20048;-70
2023/12/09 10:56:43;;;;;;;10.35;2.60;;;7.60;99.90;;;;;;5044203;28;20048;-73
2023/12/09 10:59:10;;;;;;;11.75;2.97;;;7.60;99.90;;;;;;5037181;28;20049;-71
2023/12/09 11:01:36;;;;;;;8.10;2.67;;;7.60;99.90;;;;;;5046020;28;20477;-72
2023/12/09 11:04:03;;;;;;;13.98;3.58;;;7.70;99.90;;;;;;5036744;28;20087;-72
2023/12/09 11:06:33;;;;;;;12.82;3.13;;;7.70;99.90;;;;;;5032059;28;20056;-70
2023/12/09 11:09:00;;;;;;;9.60;2.90;;;7.70;99.90;;;;;;5044056;28;20040;-72
2023/12/09 11:11:27;;;;;;;12.93;2.88;;;7.70;99.90;;;;;;5035187;28;20041;-73
2023/12/09 11:13:54;;;;;;;13.55;2.95;;;7.80;99.90;;;;;;5028901;28;20044;-72
2023/12/09 11:16:23;;;;;;;8.85;2.78;;;7.70;99.90;;;;;;5028608;28;20445;-70
2023/12/09 11:18:50;;;;;;;10.98;3.38;;;7.80;99.90;;;;;;5043853;28;20067;-72
2023/12/09 11:21:17;;;;;;;13.07;3.10;;;7.80;99.90;;;;;;5031634;28;20444;-74
2023/12/09 11:23:49;;;;;;;10.05;3.20;;;7.80;99.90;;;;;;5037391;28;20103;-72
2023/12/09 11:26:17;;;;;;;8.57;2.50;;;7.80;99.90;;;;;;5042731;28;20132;-69
2023/12/09 11:29:01;;;;;;;11.90;2.78;;;7.80;99.90;;;;;;5028748;28;20052;-71
2023/12/09 11:31:40;;;;;;;6.10;2.13;;;7.80;99.90;;;;;;5029296;28;20041;-72
2023/12/09 11:34:07;;;;;;;11.30;2.58;;;7.80;99.90;;;;;;5039054;28;20075;-71
2023/12/09 11:36:38;;;;;;;10.80;2.35;;;7.80;99.90;;;;;;5038664;28;20126;-74
2023/12/09 11:39:06;;;;;;;7.72;2.10;;;7.80;99.90;;;;;;5040899;28;20048;-77
2023/12/09 11:41:33;;;;;;;9.25;2.22;;;7.80;99.90;;;;;;5018224;28;20041;-72
2023/12/09 11:44:03;;;;;;;10.20;2.92;;;7.80;99.90;;;;;;5040880;28;20025;-74
2023/12/09 11:46:33;;;;;;;8.40;2.45;;;7.90;99.90;;;;;;5025210;28;20029;-73
2023/12/09 11:48:59;;;;;;;10.90;3.30;;;7.90;99.90;;;;;;5043196;28;20040;-73
2023/12/09 11:51:26;;;;;;;7.22;2.40;;;7.90;99.90;;;;;;5045636;28;20032;-73
2023/12/09 11:53:56;;;;;;;9.48;2.80;;;7.90;99.90;;;;;;5031061;28;20045;-77
2023/12/09 11:56:22;;;;;;;8.70;2.58;;;8.00;99.90;;;;;;5039259;28;20051;-72
2023/12/09 11:58:47;;;;;;;11.82;2.60;;;8.00;99.90;;;;;;5023965;28;20049;-70
2023/12/09 12:01:13;;;;;;;10.30;2.08;;;8.00;99.90;;;;;;5045155;28;20045;-76
2023/12/09 12:03:38;;;;;;;11.18;2.72;;;8.00;99.90;;;;;;5036103;28;20040;-74
2023/12/09 12:06:05;;;;;;;10.77;2.45;;;8.00;99.90;;;;;;5045993;28;20037;-73
2023/12/09 12:08:31;;;;;;;7.93;2.65;;;8.00;99.90;;;;;;5041180;28;20037;-74
2023/12/09 12:10:57;;;;;;;13.15;2.45;;;8.00;99.90;;;;;;5036163;28;20489;-73
2023/12/09 12:13:22;;;;;;;10.93;2.58;;;8.00;99.90;;;;;;5028369;28;20346;-74
2023/12/09 12:15:49;;;;;;;6.05;1.90;;;7.90;99.90;;;;;;5040579;28;20465;-74
2023/12/09 12:18:15;;;;;;;12.07;2.83;;;7.90;99.90;;;;;;5031347;28;20466;-70
2023/12/09 12:20:41;;;;;;;7.78;2.35;;;7.90;99.90;;;;;;5028162;28;20041;-74
2023/12/09 12:23:06;;;;;;;7.75;2.22;;;7.90;99.90;;;;;;5028573;28;20451;-71
2023/12/09 12:25:32;;;;;;;10.55;2.22;;;7.90;99.90;;;;;;5030005;28;20524;-73
2023/12/09 12:27:57;;;;;;;8.88;1.83;;;7.90;99.90;;;;;;5030508;28;20042;-72
2023/12/09 12:30:23;;;;;;;8.45;2.47;;;7.80;99.90;;;;;;5030984;28;20069;-72
2023/12/09 12:32:56;;;;;;;7.47;2.08;;;7.80;99.90;;;;;;5014929;28;20049;-73
2023/12/09 12:35:25;;;;;;;4.95;2.20;;;7.80;99.90;;;;;;5025342;28;20084;-75
2023/12/09 12:37:51;;;;;;;11.23;2.13;;;7.80;99.90;;;;;;5050605;28;20762;-73